createdAt,value
2019-05-12T00:01:38.915Z,96.56
2019-05-12T00:04:08.411Z,97.31
2019-05-12T00:06:38.783Z,98.41
2019-05-12T00:09:08.556Z,98.36
2019-05-12T00:11:37.953Z,98.32
2019-05-12T00:14:08.596Z,98.20
2019-05-12T00:16:38.559Z,97.62
2019-05-12T00:19:09.240Z,97.46
2019-05-12T00:21:39.870Z,97.12
2019-05-12T00:24:12.133Z,96.50
2019-05-12T00:26:43.004Z,96.21
2019-05-12T00:29:12.138Z,95.79
2019-05-12T00:31:41.446Z,96.67
2019-05-12T00:34:10.590Z,96.62
2019-05-12T00:36:39.720Z,96.20
2019-05-12T00:39:08.982Z,96.44
2019-05-12T00:41:39.073Z,95.90
2019-05-12T00:44:08.947Z,95.86
2019-05-12T00:46:38.625Z,96.54
2019-05-12T00:49:08.252Z,96.76
2019-05-12T00:51:38.452Z,96.93
2019-05-12T00:54:09.086Z,97.48
2019-05-12T00:56:39.703Z,98.78
2019-05-12T00:59:08.850Z,99.69
2019-05-12T01:01:38.226Z,99.01
2019-05-12T01:04:08.862Z,97.47
2019-05-12T01:06:38.676Z,97.27
2019-05-12T01:09:08.823Z,98.36
2019-05-12T01:11:38.270Z,98.94
2019-05-12T01:14:08.567Z,99.23
2019-05-12T01:16:38.732Z,98.89
2019-05-12T01:19:08.325Z,98.50
2019-05-12T01:21:37.861Z,99.95
2019-05-12T01:24:08.873Z,100.00
2019-05-12T01:26:38.831Z,100.00
2019-05-12T01:29:08.545Z,100.00
2019-05-12T01:31:43.517Z,100.00
2019-05-12T01:34:12.861Z,100.00
2019-05-12T01:36:41.954Z,100.00
2019-05-12T01:39:11.187Z,100.00
2019-05-12T01:41:40.411Z,100.00
2019-05-12T01:44:09.617Z,100.00
2019-05-12T01:46:38.863Z,100.00
2019-05-12T01:49:08.438Z,100.00
2019-05-12T01:51:38.457Z,100.00
2019-05-12T01:54:13.919Z,100.00
2019-05-12T01:56:38.614Z,100.00
2019-05-12T01:59:08.248Z,100.00
2019-05-12T02:01:38.839Z,100.00
2019-05-12T02:04:08.218Z,100.00
2019-05-12T02:06:38.598Z,100.00
2019-05-12T02:09:11.465Z,100.00
2019-05-12T02:11:40.718Z,100.00
2019-05-12T02:14:10.109Z,100.00
2019-05-12T02:16:39.243Z,100.00
2019-05-12T02:19:09.161Z,100.00
2019-05-12T02:21:38.463Z,100.00
2019-05-12T02:24:07.992Z,100.00
2019-05-12T02:26:38.443Z,99.72
2019-05-12T02:29:08.082Z,99.79
2019-05-12T02:31:39.737Z,98.89
2019-05-12T02:34:08.234Z,97.95
2019-05-12T02:36:37.514Z,97.92
2019-05-12T02:39:07.852Z,99.12
2019-05-12T02:41:37.184Z,98.89
2019-05-12T02:44:06.434Z,99.77
2019-05-12T02:46:35.576Z,100.00
2019-05-12T02:49:05.150Z,100.00
2019-05-12T02:51:35.366Z,100.00
2019-05-12T02:54:05.441Z,100.00
2019-05-12T02:56:35.734Z,100.00
2019-05-12T02:59:05.738Z,100.00
2019-05-12T03:01:35.543Z,100.00
2019-05-12T03:04:05.895Z,100.00
2019-05-12T03:06:36.228Z,100.00
2019-05-12T03:09:08.086Z,100.00
2019-05-12T03:11:37.991Z,100.00
2019-05-12T03:14:07.141Z,100.00
2019-05-12T03:16:37.888Z,100.00
2019-05-12T03:19:07.024Z,100.00
2019-05-12T03:21:36.312Z,100.00
2019-05-12T03:24:06.626Z,100.00
2019-05-12T03:26:35.940Z,100.00
2019-05-12T03:29:05.894Z,100.00
2019-05-12T03:31:40.163Z,100.00
2019-05-12T03:34:10.427Z,100.00
2019-05-12T03:36:41.729Z,100.00
2019-05-12T03:39:09.579Z,99.35
2019-05-12T03:41:39.034Z,99.46
2019-05-12T03:44:08.337Z,98.16
2019-05-12T03:46:37.580Z,98.33
2019-05-12T03:49:08.864Z,99.37
2019-05-12T03:51:38.065Z,97.78
2019-05-12T03:54:07.294Z,98.51
2019-05-12T03:56:36.520Z,98.79
2019-05-12T03:59:05.981Z,98.67
2019-05-12T04:01:36.563Z,98.90
2019-05-12T04:04:06.334Z,99.41
2019-05-12T04:06:35.662Z,98.46
2019-05-12T04:09:07.365Z,98.79
2019-05-12T04:11:40.139Z,98.70
2019-05-12T04:14:09.385Z,98.02
2019-05-12T04:16:39.650Z,98.09
2019-05-12T04:19:08.793Z,98.36
2019-05-12T04:21:37.981Z,99.20
2019-05-12T04:24:07.130Z,99.67
2019-05-12T04:26:36.988Z,99.69
2019-05-12T04:29:06.201Z,99.51
2019-05-12T04:31:36.438Z,99.33
2019-05-12T04:34:05.890Z,98.56
2019-05-12T04:36:35.891Z,97.62
2019-05-12T04:39:06.500Z,98.54
2019-05-12T04:41:35.870Z,95.92
2019-05-12T04:44:06.005Z,97.50
2019-05-12T04:46:35.703Z,98.04
2019-05-12T04:49:05.588Z,99.22
2019-05-12T04:51:35.301Z,98.15
2019-05-12T04:54:05.726Z,98.62
2019-05-12T04:56:36.183Z,99.28
2019-05-12T04:59:05.681Z,98.73
2019-05-12T05:01:35.225Z,97.90
2019-05-12T05:04:05.652Z,97.69
2019-05-12T05:06:35.209Z,97.27
2019-05-12T05:09:06.787Z,96.64
2019-05-12T05:11:35.983Z,96.40
2019-05-12T05:14:05.237Z,95.67
2019-05-12T05:16:34.899Z,93.68
2019-05-12T05:19:04.114Z,93.80
2019-05-12T05:21:34.423Z,93.53
2019-05-12T05:24:04.083Z,90.63
2019-05-12T05:26:37.033Z,87.47
2019-05-12T05:29:04.570Z,84.08
2019-05-12T05:31:33.931Z,83.38
2019-05-12T05:34:04.830Z,77.70
2019-05-12T05:36:35.387Z,75.22
2019-05-12T05:39:06.823Z,79.84
2019-05-12T05:41:40.211Z,79.16
2019-05-12T05:44:06.716Z,81.70
2019-05-12T05:46:39.175Z,78.38
2019-05-12T05:49:07.930Z,79.02
2019-05-12T05:51:39.647Z,82.85
2019-05-12T05:54:07.801Z,79.14
2019-05-12T05:56:42.638Z,78.05
2019-05-12T05:59:09.229Z,80.44
2019-05-12T06:01:40.309Z,79.45
2019-05-12T06:04:09.244Z,81.09
2019-05-12T06:06:42.509Z,80.76
2019-05-12T06:09:10.423Z,79.54
2019-05-12T06:11:39.559Z,79.73
2019-05-12T06:14:14.087Z,80.67
2019-05-12T06:16:43.222Z,78.18
2019-05-12T06:19:13.923Z,80.04
2019-05-12T06:21:43.997Z,78.99
2019-05-12T06:24:17.858Z,78.60
2019-05-12T06:26:56.810Z,79.81
2019-05-12T06:29:20.319Z,77.15
2019-05-12T06:31:46.951Z,78.71
2019-05-12T06:34:20.911Z,78.61
2019-05-12T06:36:46.821Z,78.02
2019-05-12T06:39:20.484Z,77.48
2019-05-12T06:41:46.852Z,75.93
2019-05-12T06:44:19.385Z,75.79
2019-05-12T06:46:46.683Z,76.48
2019-05-12T06:49:17.641Z,74.79
2019-05-12T06:51:46.551Z,77.19
2019-05-12T06:54:15.628Z,76.73
2019-05-12T06:56:44.717Z,73.73
2019-05-12T06:59:14.754Z,73.81
2019-05-12T07:01:45.043Z,74.04
2019-05-12T07:04:14.437Z,76.07
2019-05-12T07:06:44.270Z,75.08
2019-05-12T07:09:18.608Z,72.02
2019-05-12T07:11:52.833Z,69.67
2019-05-12T07:14:22.431Z,69.07
2019-05-12T07:16:53.308Z,69.11
2019-05-12T07:19:23.378Z,71.45
2019-05-12T07:21:58.141Z,72.86
2019-05-12T07:24:23.960Z,70.90
2019-05-12T07:27:02.641Z,70.85
2019-05-12T07:29:25.154Z,67.88
2019-05-12T07:31:54.321Z,67.93
2019-05-12T07:34:24.109Z,66.48
2019-05-12T07:36:53.806Z,66.01
2019-05-12T07:39:24.200Z,66.36
2019-05-12T07:41:54.965Z,66.07
2019-05-12T07:44:25.287Z,62.69
2019-05-12T07:46:54.595Z,60.27
2019-05-12T07:49:34.531Z,64.70
2019-05-12T07:51:54.418Z,63.27
2019-05-12T07:54:23.689Z,64.15
2019-05-12T07:56:53.971Z,64.17
2019-05-12T07:59:26.713Z,64.36
2019-05-12T08:01:54.968Z,66.34
2019-05-12T08:04:24.125Z,65.49
2019-05-12T08:06:54.252Z,68.24
2019-05-12T08:09:31.948Z,68.07
2019-05-12T08:11:54.199Z,68.67
2019-05-12T08:14:29.044Z,69.05
2019-05-12T08:16:55.107Z,66.58
2019-05-12T08:19:25.705Z,62.07
2019-05-12T08:21:54.907Z,61.87
2019-05-12T08:24:23.974Z,59.93
2019-05-12T08:27:01.435Z,63.04
2019-05-12T08:29:24.558Z,67.61
2019-05-12T08:31:54.899Z,67.45
2019-05-12T08:34:24.114Z,68.96
2019-05-12T08:36:56.761Z,67.50
2019-05-12T08:39:26.002Z,67.28
2019-05-12T08:41:54.833Z,68.41
2019-05-12T08:44:33.275Z,69.54
2019-05-12T08:46:56.623Z,67.81
2019-05-12T08:49:25.832Z,67.81
2019-05-12T08:52:00.128Z,66.03
2019-05-12T08:54:25.875Z,63.83
2019-05-12T08:57:00.889Z,64.49
2019-05-12T08:59:27.527Z,63.66
2019-05-12T09:02:00.602Z,63.79
2019-05-12T09:04:27.627Z,60.41
2019-05-12T09:06:59.798Z,63.68
2019-05-12T09:09:29.151Z,63.23
2019-05-12T09:11:58.612Z,64.48
2019-05-12T09:14:27.862Z,62.48
2019-05-12T09:17:02.735Z,62.46
2019-05-12T09:19:29.371Z,59.74
2019-05-12T09:21:58.649Z,59.99
2019-05-12T09:24:27.843Z,56.87
2019-05-12T09:26:58.953Z,55.37
2019-05-12T09:29:27.933Z,53.19
2019-05-12T09:31:59.093Z,55.03
2019-05-12T09:34:29.303Z,54.47
2019-05-12T09:37:00.040Z,54.98
2019-05-12T09:39:42.298Z,52.73
2019-05-12T09:42:04.906Z,55.25
2019-05-12T09:44:34.250Z,54.00
2019-05-12T09:47:04.067Z,52.34
2019-05-12T09:49:39.234Z,54.21
2019-05-12T09:52:05.235Z,54.28
2019-05-12T09:54:40.595Z,58.94
2019-05-12T09:57:05.370Z,56.99
2019-05-12T09:59:34.549Z,57.33
2019-05-12T10:02:03.863Z,54.19
2019-05-12T10:04:36.548Z,56.90
2019-05-12T10:07:06.965Z,59.86
2019-05-12T10:09:36.124Z,59.23
2019-05-12T10:12:05.751Z,55.50
2019-05-12T10:14:34.918Z,51.17
2019-05-12T10:17:04.113Z,52.98
2019-05-12T10:19:34.052Z,49.29
2019-05-12T10:22:06.351Z,57.33
2019-05-12T10:24:41.467Z,58.50
2019-05-12T10:27:06.327Z,57.95
2019-05-12T10:29:35.480Z,55.46
2019-05-12T10:32:04.592Z,54.21
2019-05-12T10:34:35.876Z,56.24
2019-05-12T10:37:04.515Z,56.15
2019-05-12T10:39:33.645Z,56.74
2019-05-12T10:42:02.842Z,51.96
2019-05-12T10:44:39.176Z,53.71
2019-05-12T10:47:04.715Z,52.92
2019-05-12T10:49:33.952Z,54.73
2019-05-12T10:52:03.891Z,53.81
2019-05-12T10:54:34.256Z,48.05
2019-05-12T10:57:05.029Z,49.79
2019-05-12T10:59:38.787Z,52.47
2019-05-12T11:02:07.282Z,51.58
2019-05-12T11:04:40.895Z,53.84
2019-05-12T11:07:07.690Z,55.59
2019-05-12T11:09:36.862Z,57.58
2019-05-12T11:12:06.208Z,52.89
2019-05-12T11:14:35.480Z,50.01
2019-05-12T11:17:07.529Z,48.04
2019-05-12T11:19:44.414Z,49.81
2019-05-12T11:22:08.268Z,53.13
2019-05-12T11:24:38.615Z,57.08
2019-05-12T11:27:07.728Z,56.59
2019-05-12T11:29:46.264Z,54.40
2019-05-12T11:32:07.679Z,52.34
2019-05-12T11:34:36.852Z,51.52
2019-05-12T11:37:05.891Z,50.94
2019-05-12T11:39:38.765Z,54.81
2019-05-12T11:42:05.830Z,55.72
2019-05-12T11:44:34.930Z,54.18
2019-05-12T11:47:04.081Z,52.34
2019-05-12T11:49:33.595Z,49.40
2019-05-12T11:52:07.684Z,50.93
2019-05-12T11:54:34.429Z,53.59
2019-05-12T11:57:03.780Z,54.00
2019-05-12T11:59:34.146Z,54.45
2019-05-12T12:02:03.643Z,54.70
2019-05-12T12:04:48.276Z,54.16
2019-05-12T12:07:17.430Z,49.56
2019-05-12T12:09:49.373Z,49.76
2019-05-12T12:12:18.693Z,50.80
2019-05-12T12:14:50.541Z,49.42
2019-05-12T12:17:25.133Z,51.15
2019-05-12T12:19:50.678Z,50.41
2019-05-12T12:22:20.387Z,48.95
2019-05-12T12:24:50.575Z,49.29
2019-05-12T12:27:19.649Z,45.01
2019-05-12T12:29:48.768Z,46.06
2019-05-12T12:32:20.307Z,43.28
2019-05-12T12:34:49.431Z,42.56
2019-05-12T12:37:23.527Z,41.35
2019-05-12T12:39:53.627Z,39.92
2019-05-12T12:42:24.166Z,39.87
2019-05-12T12:44:58.898Z,38.71
2019-05-12T12:47:26.488Z,44.10
2019-05-12T12:49:56.793Z,44.18
2019-05-12T12:52:26.007Z,40.08
2019-05-12T12:54:59.273Z,43.58
2019-05-12T12:57:26.078Z,42.19
2019-05-12T12:59:55.115Z,39.65
2019-05-12T13:02:24.936Z,41.84
2019-05-12T13:04:53.992Z,42.07
2019-05-12T13:07:24.104Z,39.09
2019-05-12T13:09:54.931Z,39.41
2019-05-12T13:12:24.065Z,37.17
2019-05-12T13:14:53.297Z,39.35
2019-05-12T13:17:29.066Z,37.59
2019-05-12T13:19:58.514Z,37.43
2019-05-12T13:22:24.888Z,40.91
2019-05-12T13:24:58.239Z,39.74
2019-05-12T13:27:29.136Z,40.46
2019-05-12T13:29:56.759Z,39.61
2019-05-12T13:32:32.085Z,42.69
2019-05-12T13:34:57.042Z,40.23
2019-05-12T13:37:27.181Z,37.34
2019-05-12T13:39:59.939Z,43.05
2019-05-12T13:42:30.314Z,45.45
2019-05-12T13:44:58.998Z,43.82
2019-05-12T13:47:29.095Z,46.80
2019-05-12T13:49:59.169Z,42.50
2019-05-12T13:52:30.258Z,43.19
2019-05-12T13:55:00.151Z,42.91
2019-05-12T13:57:30.047Z,43.85
2019-05-12T14:00:08.453Z,42.23
2019-05-12T14:02:30.021Z,40.36
2019-05-12T14:05:00.526Z,41.40
2019-05-12T14:07:30.238Z,41.10
2019-05-12T14:09:59.381Z,39.83
2019-05-12T14:12:28.473Z,42.18
2019-05-12T14:14:57.505Z,43.04
2019-05-12T14:17:31.081Z,43.10
2019-05-12T14:19:57.372Z,43.62
2019-05-12T14:22:26.614Z,40.07
2019-05-12T14:24:55.711Z,39.37
2019-05-12T14:27:28.602Z,42.37
2019-05-12T14:30:00.284Z,41.19
2019-05-12T14:32:26.375Z,41.29
2019-05-12T14:34:59.409Z,39.99
2019-05-12T14:37:26.431Z,41.00
2019-05-12T14:39:55.539Z,40.27
2019-05-12T14:42:26.150Z,39.78
2019-05-12T14:44:55.474Z,41.09
2019-05-12T14:47:29.775Z,39.83
2019-05-12T14:49:55.291Z,41.19
2019-05-12T14:52:24.429Z,41.86
2019-05-12T14:54:54.163Z,41.95
2019-05-12T14:57:24.339Z,42.59
2019-05-12T14:59:53.613Z,42.91
2019-05-12T15:02:25.484Z,40.12
2019-05-12T15:04:54.252Z,41.69
2019-05-12T15:07:23.730Z,42.19
2019-05-12T15:10:01.291Z,41.49
2019-05-12T15:12:24.327Z,41.19
2019-05-12T15:14:54.319Z,42.36
2019-05-12T15:17:24.464Z,40.75
2019-05-12T15:19:54.337Z,41.14
2019-05-12T15:22:24.431Z,40.65
2019-05-12T15:24:56.350Z,40.92
2019-05-12T15:27:39.569Z,41.14
2019-05-12T15:29:59.421Z,41.84
2019-05-12T15:32:26.479Z,43.37
2019-05-12T15:34:55.570Z,41.49
2019-05-12T15:37:28.961Z,41.45
2019-05-12T15:39:55.546Z,40.54
2019-05-12T15:42:24.717Z,41.90
2019-05-12T15:44:53.924Z,41.36
2019-05-12T15:47:27.249Z,41.02
2019-05-12T15:49:53.796Z,40.62
2019-05-12T15:52:24.661Z,41.18
2019-05-12T15:54:54.097Z,43.94
2019-05-12T15:57:24.476Z,44.46
2019-05-12T15:59:54.200Z,44.32
2019-05-12T16:02:23.606Z,45.07
2019-05-12T16:04:55.024Z,43.73
2019-05-12T16:07:29.579Z,43.73
2019-05-12T16:09:55.778Z,43.98
2019-05-12T16:12:26.818Z,42.73
2019-05-12T16:14:55.601Z,43.89
2019-05-12T16:17:26.999Z,44.39
2019-05-12T16:19:55.391Z,44.73
2019-05-12T16:22:24.571Z,45.47
2019-05-12T16:24:53.621Z,46.26
2019-05-12T16:27:24.910Z,47.44
2019-05-12T16:29:53.573Z,47.36
2019-05-12T16:32:27.101Z,47.86
2019-05-12T16:34:54.221Z,47.20
2019-05-12T16:37:31.192Z,47.63
2019-05-12T16:39:55.770Z,46.83
2019-05-12T16:42:24.938Z,45.90
2019-05-12T16:44:56.204Z,47.20
2019-05-12T16:47:29.205Z,44.07
2019-05-12T16:49:57.025Z,44.38
2019-05-12T16:52:26.129Z,45.11
2019-05-12T16:54:55.356Z,44.80
2019-05-12T16:57:24.582Z,46.04
2019-05-12T17:00:02.421Z,44.76
2019-05-12T17:02:38.502Z,45.30
2019-05-12T17:04:55.705Z,44.30
2019-05-12T17:07:27.161Z,43.70
2019-05-12T17:09:56.585Z,44.48
2019-05-12T17:12:31.912Z,44.31
2019-05-12T17:14:59.638Z,45.20
2019-05-12T17:17:29.178Z,45.19
2019-05-12T17:19:58.507Z,45.02
2019-05-12T17:22:27.848Z,45.34
2019-05-12T17:24:56.920Z,44.98
2019-05-12T17:27:27.388Z,44.98
2019-05-12T17:29:56.767Z,46.07
2019-05-12T17:32:25.949Z,45.16
2019-05-12T17:34:55.130Z,44.41
2019-05-12T17:37:24.409Z,44.80
2019-05-12T17:39:53.426Z,44.40
2019-05-12T17:42:26.721Z,44.62
2019-05-12T17:44:54.451Z,44.00
2019-05-12T17:47:26.300Z,45.05
2019-05-12T17:50:00.556Z,44.77
2019-05-12T17:52:28.558Z,45.69
2019-05-12T17:55:04.409Z,46.73
2019-05-12T17:57:28.641Z,46.26
2019-05-12T17:59:59.935Z,45.78
2019-05-12T18:02:28.496Z,45.25
2019-05-12T18:05:00.961Z,45.20
2019-05-12T18:07:34.270Z,45.02
2019-05-12T18:10:04.202Z,45.38
2019-05-12T18:12:36.662Z,45.16
2019-05-12T18:15:04.700Z,45.15
2019-05-12T18:17:39.001Z,46.50
2019-05-12T18:20:06.315Z,46.32
2019-05-12T18:22:39.289Z,46.75
2019-05-12T18:25:06.545Z,47.23
2019-05-12T18:27:44.509Z,47.76
2019-05-12T18:30:07.828Z,47.71
2019-05-12T18:32:36.879Z,48.39
2019-05-12T18:35:05.967Z,48.73
2019-05-12T18:37:35.105Z,49.88
2019-05-12T18:40:04.356Z,49.42
2019-05-12T18:42:34.029Z,49.08
2019-05-12T18:45:11.946Z,50.45
2019-05-12T18:47:36.518Z,50.70
2019-05-12T18:50:06.467Z,51.14
2019-05-12T18:52:42.661Z,51.29
2019-05-12T18:55:06.473Z,51.46
2019-05-12T18:57:39.156Z,51.32
2019-05-12T19:00:07.615Z,50.97
2019-05-12T19:02:36.697Z,50.47
2019-05-12T19:05:05.945Z,50.15
2019-05-12T19:07:39.614Z,51.39
2019-05-12T19:10:07.261Z,51.19
2019-05-12T19:12:36.786Z,51.26
2019-05-12T19:15:10.320Z,51.80
2019-05-12T19:17:38.711Z,51.16
2019-05-12T19:20:08.193Z,52.10
2019-05-12T19:22:39.349Z,52.80
2019-05-12T19:25:08.995Z,56.54
2019-05-12T19:27:40.274Z,54.67
2019-05-12T19:30:09.762Z,53.97
2019-05-12T19:32:38.826Z,53.01
2019-05-12T19:35:09.620Z,56.01
2019-05-12T19:37:42.344Z,55.62
2019-05-12T19:40:14.076Z,58.42
2019-05-12T19:42:41.521Z,57.34
2019-05-12T19:45:16.156Z,56.77
2019-05-12T19:47:44.273Z,56.87
2019-05-12T19:50:18.240Z,55.42
2019-05-12T19:52:44.469Z,56.56
2019-05-12T19:55:14.204Z,56.58
2019-05-12T19:57:44.400Z,54.96
2019-05-12T20:00:14.011Z,54.23
2019-05-12T20:02:43.187Z,56.17
2019-05-12T20:05:17.354Z,55.24
2019-05-12T20:07:46.028Z,56.41
2019-05-12T20:10:16.544Z,55.60
2019-05-12T20:12:48.919Z,56.50
2019-05-12T20:15:17.910Z,56.26
2019-05-12T20:17:48.875Z,54.19
2019-05-12T20:20:28.850Z,55.55
2019-05-12T20:22:54.212Z,52.24
2019-05-12T20:25:23.811Z,54.78
2019-05-12T20:27:55.902Z,55.23
2019-05-12T20:30:28.085Z,55.25
2019-05-12T20:32:59.628Z,55.57
2019-05-12T20:35:28.714Z,56.19
2019-05-12T20:37:58.497Z,57.89
2019-05-12T20:40:32.121Z,58.37
2019-05-12T20:43:07.735Z,58.03
2019-05-12T20:45:33.009Z,59.17
2019-05-12T20:48:04.070Z,60.68
2019-05-12T20:50:38.740Z,61.39
2019-05-12T20:53:03.928Z,61.90
2019-05-12T20:55:39.516Z,62.70
2019-05-12T20:58:04.554Z,63.51
2019-05-12T21:00:33.860Z,62.92
2019-05-12T21:03:05.455Z,62.32
2019-05-12T21:05:34.555Z,63.30
2019-05-12T21:08:11.481Z,64.29
2019-05-12T21:10:35.350Z,65.03
2019-05-12T21:13:04.832Z,64.90
2019-05-12T21:15:37.164Z,65.05
2019-05-12T21:18:07.345Z,65.50
2019-05-12T21:20:37.505Z,63.78
2019-05-12T21:23:07.327Z,63.78
2019-05-12T21:25:36.473Z,65.21
2019-05-12T21:28:07.847Z,66.05
2019-05-12T21:30:37.153Z,66.20
2019-05-12T21:33:06.211Z,66.03
2019-05-12T21:35:40.655Z,65.34
2019-05-12T21:38:08.006Z,66.85
2019-05-12T21:40:37.047Z,68.32
2019-05-12T21:43:06.109Z,68.41
2019-05-12T21:45:35.236Z,68.22
2019-05-12T21:48:04.342Z,69.17
2019-05-12T21:50:38.222Z,69.78
2019-05-12T21:53:04.502Z,69.98
2019-05-12T21:55:34.146Z,69.63
2019-05-12T21:58:10.473Z,69.72
2019-05-12T22:00:37.849Z,70.06
2019-05-12T22:03:10.930Z,70.97
2019-05-12T22:05:50.336Z,71.48
2019-05-12T22:08:19.754Z,69.60
2019-05-12T22:10:43.659Z,70.42
2019-05-12T22:13:17.509Z,68.76
2019-05-12T22:15:43.654Z,68.60
2019-05-12T22:18:13.976Z,68.98
2019-05-12T22:20:46.087Z,70.38
2019-05-12T22:23:15.094Z,68.67
2019-05-12T22:25:49.291Z,66.91
2019-05-12T22:28:16.591Z,67.38
2019-05-12T22:30:45.647Z,67.97
2019-05-12T22:33:14.765Z,68.44
2019-05-12T22:35:44.476Z,67.81
2019-05-12T22:38:16.596Z,67.55
2019-05-12T22:40:49.265Z,68.76
2019-05-12T22:43:15.303Z,66.87
2019-05-12T22:45:47.094Z,67.31
2019-05-12T22:48:16.757Z,67.95
2019-05-12T22:50:46.079Z,68.44
2019-05-12T22:53:19.311Z,68.40
2019-05-12T22:55:47.067Z,67.80
2019-05-12T22:58:19.725Z,68.82
2019-05-12T23:00:51.381Z,69.90
2019-05-12T23:03:18.402Z,71.48
2019-05-12T23:05:50.710Z,71.30
2019-05-12T23:08:19.512Z,70.39
2019-05-12T23:10:51.865Z,71.63
2019-05-12T23:13:20.631Z,71.58
2019-05-12T23:15:49.732Z,71.02
2019-05-12T23:18:28.866Z,72.67
2019-05-12T23:20:54.160Z,73.09
2019-05-12T23:23:24.345Z,72.58
2019-05-12T23:26:00.191Z,72.65
2019-05-12T23:28:24.397Z,72.85
2019-05-12T23:30:53.648Z,74.22
2019-05-12T23:33:31.239Z,75.17
2019-05-12T23:35:53.661Z,75.04
2019-05-12T23:38:24.616Z,76.30
2019-05-12T23:40:53.876Z,76.68
2019-05-12T23:43:23.776Z,77.80
2019-05-12T23:45:53.344Z,78.40
2019-05-12T23:48:22.642Z,77.56
2019-05-12T23:50:51.713Z,77.36
2019-05-12T23:53:20.740Z,77.08
2019-05-12T23:55:49.750Z,79.43
2019-05-12T23:58:18.823Z,79.21
